sensor_id;sensor_type;location;lat;lon;timestamp;P1;durP1;ratioP1;P2;durP2;ratioP2
30247;SDS011;17063;50.892;4.702;2022-11-15T00:01:42;17.37;;;10.63;;
30247;SDS011;17063;50.892;4.702;2022-11-15T00:04:28;21.67;;;11.67;;
30247;SDS011;17063;50.892;4.702;2022-11-15T00:07:13;21.43;;;11.37;;
30247;SDS011;17063;50.892;4.702;2022-11-15T00:10:19;22.93;;;11.33;;
30247;SDS011;17063;50.892;4.702;2022-11-15T00:13:09;16.60;;;11.27;;
30247;SDS011;17063;50.892;4.702;2022-11-15T00:15:59;18.07;;;11.40;;
30247;SDS011;17063;50.892;4.702;2022-11-15T00:18:45;19.17;;;11.90;;
30247;SDS011;17063;50.892;4.702;2022-11-15T00:21:34;24.37;;;11.20;;
30247;SDS011;17063;50.892;4.702;2022-11-15T00:24:20;20.80;;;11.67;;
30247;SDS011;17063;50.892;4.702;2022-11-15T00:27:05;18.13;;;10.67;;
30247;SDS011;17063;50.892;4.702;2022-11-15T00:29:52;16.60;;;11.10;;
30247;SDS011;17063;50.892;4.702;2022-11-15T00:32:37;20.13;;;11.13;;
30247;SDS011;17063;50.892;4.702;2022-11-15T00:35:23;17.73;;;10.83;;
30247;SDS011;17063;50.892;4.702;2022-11-15T00:38:08;23.97;;;11.40;;
30247;SDS011;17063;50.892;4.702;2022-11-15T00:40:54;17.27;;;10.93;;
30247;SDS011;17063;50.892;4.702;2022-11-15T00:43:39;17.67;;;10.17;;
30247;SDS011;17063;50.892;4.702;2022-11-15T00:46:27;22.07;;;10.97;;
30247;SDS011;17063;50.892;4.702;2022-11-15T00:49:12;17.90;;;10.23;;
30247;SDS011;17063;50.892;4.702;2022-11-15T00:51:58;20.27;;;10.23;;
30247;SDS011;17063;50.892;4.702;2022-11-15T00:54:43;18.00;;;11.27;;
30247;SDS011;17063;50.892;4.702;2022-11-15T00:57:28;18.80;;;10.43;;
30247;SDS011;17063;50.892;4.702;2022-11-15T01:00:14;20.47;;;11.00;;
30247;SDS011;17063;50.892;4.702;2022-11-15T01:03:00;18.47;;;11.33;;
30247;SDS011;17063;50.892;4.702;2022-11-15T01:05:46;17.93;;;10.70;;
30247;SDS011;17063;50.892;4.702;2022-11-15T01:08:32;17.67;;;10.40;;
30247;SDS011;17063;50.892;4.702;2022-11-15T01:11:17;20.87;;;11.33;;
30247;SDS011;17063;50.892;4.702;2022-11-15T01:14:03;17.87;;;10.33;;
30247;SDS011;17063;50.892;4.702;2022-11-15T01:16:48;21.37;;;10.67;;
30247;SDS011;17063;50.892;4.702;2022-11-15T01:19:34;16.97;;;11.03;;
30247;SDS011;17063;50.892;4.702;2022-11-15T01:22:19;20.23;;;11.07;;
30247;SDS011;17063;50.892;4.702;2022-11-15T01:25:05;16.73;;;10.27;;
30247;SDS011;17063;50.892;4.702;2022-11-15T01:27:51;17.23;;;9.93;;
30247;SDS011;17063;50.892;4.702;2022-11-15T01:30:36;18.17;;;10.03;;
30247;SDS011;17063;50.892;4.702;2022-11-15T01:33:22;18.23;;;10.27;;
30247;SDS011;17063;50.892;4.702;2022-11-15T01:36:08;18.13;;;10.73;;
30247;SDS011;17063;50.892;4.702;2022-11-15T01:39:02;17.70;;;10.23;;
30247;SDS011;17063;50.892;4.702;2022-11-15T01:41:48;19.33;;;10.53;;
30247;SDS011;17063;50.892;4.702;2022-11-15T01:47:19;19.27;;;11.57;;
30247;SDS011;17063;50.892;4.702;2022-11-15T01:50:19;21.40;;;12.83;;
30247;SDS011;17063;50.892;4.702;2022-11-15T01:53:14;17.80;;;10.90;;
30247;SDS011;17063;50.892;4.702;2022-11-15T01:56:01;25.20;;;11.77;;
30247;SDS011;17063;50.892;4.702;2022-11-15T01:58:48;24.93;;;12.03;;
30247;SDS011;17063;50.892;4.702;2022-11-15T02:01:34;18.00;;;12.17;;
30247;SDS011;17063;50.892;4.702;2022-11-15T02:04:21;21.23;;;12.83;;
30247;SDS011;17063;50.892;4.702;2022-11-15T02:07:11;23.90;;;12.23;;
30247;SDS011;17063;50.892;4.702;2022-11-15T02:09:59;24.10;;;13.03;;
30247;SDS011;17063;50.892;4.702;2022-11-15T02:12:49;24.30;;;13.13;;
30247;SDS011;17063;50.892;4.702;2022-11-15T02:15:37;19.67;;;12.80;;
30247;SDS011;17063;50.892;4.702;2022-11-15T02:18:34;21.00;;;12.17;;
30247;SDS011;17063;50.892;4.702;2022-11-15T02:24:43;20.57;;;12.03;;
30247;SDS011;17063;50.892;4.702;2022-11-15T02:31:03;21.47;;;12.50;;
30247;SDS011;17063;50.892;4.702;2022-11-15T02:34:03;19.63;;;11.80;;
30247;SDS011;17063;50.892;4.702;2022-11-15T02:42:40;18.73;;;11.20;;
30247;SDS011;17063;50.892;4.702;2022-11-15T02:45:54;17.67;;;11.70;;
30247;SDS011;17063;50.892;4.702;2022-11-15T02:48:50;18.40;;;11.50;;
30247;SDS011;17063;50.892;4.702;2022-11-15T02:51:36;18.20;;;10.83;;
30247;SDS011;17063;50.892;4.702;2022-11-15T02:54:23;20.53;;;11.90;;
30247;SDS011;17063;50.892;4.702;2022-11-15T02:57:11;18.00;;;11.50;;
30247;SDS011;17063;50.892;4.702;2022-11-15T03:00:06;17.37;;;10.93;;
30247;SDS011;17063;50.892;4.702;2022-11-15T03:06:04;21.27;;;11.43;;
30247;SDS011;17063;50.892;4.702;2022-11-15T03:09:02;19.90;;;11.57;;
30247;SDS011;17063;50.892;4.702;2022-11-15T03:11:51;21.83;;;10.93;;
30247;SDS011;17063;50.892;4.702;2022-11-15T03:14:45;19.97;;;11.63;;
30247;SDS011;17063;50.892;4.702;2022-11-15T03:17:48;16.63;;;10.23;;
30247;SDS011;17063;50.892;4.702;2022-11-15T03:20:36;15.27;;;10.37;;
30247;SDS011;17063;50.892;4.702;2022-11-15T03:23:22;17.90;;;11.37;;
30247;SDS011;17063;50.892;4.702;2022-11-15T03:26:09;19.43;;;11.10;;
30247;SDS011;17063;50.892;4.702;2022-11-15T03:28:59;16.97;;;11.07;;
30247;SDS011;17063;50.892;4.702;2022-11-15T03:31:49;18.93;;;11.47;;
30247;SDS011;17063;50.892;4.702;2022-11-15T03:34:51;19.83;;;11.63;;
30247;SDS011;17063;50.892;4.702;2022-11-15T03:37:45;16.67;;;10.80;;
30247;SDS011;17063;50.892;4.702;2022-11-15T03:40:40;19.07;;;11.03;;
30247;SDS011;17063;50.892;4.702;2022-11-15T03:43:39;18.70;;;11.93;;
30247;SDS011;17063;50.892;4.702;2022-11-15T03:46:32;21.20;;;11.80;;
30247;SDS011;17063;50.892;4.702;2022-11-15T03:49:24;19.50;;;10.93;;
30247;SDS011;17063;50.892;4.702;2022-11-15T03:52:12;18.07;;;10.83;;
30247;SDS011;17063;50.892;4.702;2022-11-15T03:55:03;18.53;;;10.63;;
30247;SDS011;17063;50.892;4.702;2022-11-15T03:57:50;18.73;;;11.00;;
30247;SDS011;17063;50.892;4.702;2022-11-15T04:00:37;20.13;;;11.93;;
30247;SDS011;17063;50.892;4.702;2022-11-15T04:03:23;18.17;;;11.07;;
30247;SDS011;17063;50.892;4.702;2022-11-15T04:06:09;18.17;;;10.97;;
30247;SDS011;17063;50.892;4.702;2022-11-15T04:08:55;18.63;;;11.47;;
30247;SDS011;17063;50.892;4.702;2022-11-15T04:11:40;15.30;;;10.63;;
30247;SDS011;17063;50.892;4.702;2022-11-15T04:14:25;18.20;;;10.03;;
30247;SDS011;17063;50.892;4.702;2022-11-15T04:17:13;19.70;;;10.67;;
30247;SDS011;17063;50.892;4.702;2022-11-15T04:19:59;19.30;;;10.30;;
30247;SDS011;17063;50.892;4.702;2022-11-15T04:23:05;16.17;;;10.33;;
30247;SDS011;17063;50.892;4.702;2022-11-15T04:26:11;21.43;;;9.43;;
30247;SDS011;17063;50.892;4.702;2022-11-15T04:29:00;14.23;;;9.57;;
30247;SDS011;17063;50.892;4.702;2022-11-15T04:32:05;15.90;;;9.17;;
30247;SDS011;17063;50.892;4.702;2022-11-15T04:34:51;17.53;;;9.33;;
30247;SDS011;17063;50.892;4.702;2022-11-15T04:37:36;15.87;;;9.73;;
30247;SDS011;17063;50.892;4.702;2022-11-15T04:40:22;17.60;;;9.63;;
30247;SDS011;17063;50.892;4.702;2022-11-15T04:43:07;14.77;;;8.77;;
30247;SDS011;17063;50.892;4.702;2022-11-15T04:45:52;16.80;;;9.70;;
30247;SDS011;17063;50.892;4.702;2022-11-15T04:48:38;14.30;;;9.50;;
30247;SDS011;17063;50.892;4.702;2022-11-15T04:51:26;14.60;;;8.90;;
30247;SDS011;17063;50.892;4.702;2022-11-15T04:54:11;14.73;;;8.63;;
30247;SDS011;17063;50.892;4.702;2022-11-15T04:56:57;15.53;;;8.10;;
30247;SDS011;17063;50.892;4.702;2022-11-15T04:59:43;13.57;;;8.33;;
30247;SDS011;17063;50.892;4.702;2022-11-15T05:02:28;12.70;;;8.00;;
30247;SDS011;17063;50.892;4.702;2022-11-15T05:05:34;18.73;;;7.27;;
30247;SDS011;17063;50.892;4.702;2022-11-15T05:08:19;10.60;;;7.17;;
30247;SDS011;17063;50.892;4.702;2022-11-15T05:11:05;14.03;;;7.00;;
30247;SDS011;17063;50.892;4.702;2022-11-15T05:13:51;18.30;;;7.00;;
30247;SDS011;17063;50.892;4.702;2022-11-15T05:16:36;12.63;;;6.50;;
30247;SDS011;17063;50.892;4.702;2022-11-15T05:19:22;11.40;;;6.63;;
30247;SDS011;17063;50.892;4.702;2022-11-15T05:22:08;13.57;;;6.30;;
30247;SDS011;17063;50.892;4.702;2022-11-15T05:24:53;12.57;;;6.10;;
30247;SDS011;17063;50.892;4.702;2022-11-15T05:27:39;12.70;;;6.43;;
30247;SDS011;17063;50.892;4.702;2022-11-15T05:30:24;7.83;;;5.93;;
30247;SDS011;17063;50.892;4.702;2022-11-15T05:33:09;10.37;;;5.80;;
30247;SDS011;17063;50.892;4.702;2022-11-15T05:35:56;9.73;;;5.77;;
30247;SDS011;17063;50.892;4.702;2022-11-15T05:38:46;12.07;;;6.43;;
30247;SDS011;17063;50.892;4.702;2022-11-15T05:41:33;9.03;;;6.30;;
30247;SDS011;17063;50.892;4.702;2022-11-15T05:44:22;11.33;;;5.67;;
30247;SDS011;17063;50.892;4.702;2022-11-15T05:47:08;17.17;;;5.97;;
30247;SDS011;17063;50.892;4.702;2022-11-15T05:49:55;9.63;;;5.60;;
30247;SDS011;17063;50.892;4.702;2022-11-15T05:52:42;12.47;;;5.83;;
30247;SDS011;17063;50.892;4.702;2022-11-15T05:55:30;8.57;;;5.13;;
30247;SDS011;17063;50.892;4.702;2022-11-15T05:58:17;13.13;;;5.77;;
30247;SDS011;17063;50.892;4.702;2022-11-15T06:01:04;8.30;;;5.20;;
30247;SDS011;17063;50.892;4.702;2022-11-15T06:03:50;8.83;;;5.20;;
30247;SDS011;17063;50.892;4.702;2022-11-15T06:06:36;9.13;;;5.07;;
30247;SDS011;17063;50.892;4.702;2022-11-15T06:09:22;7.23;;;5.27;;
30247;SDS011;17063;50.892;4.702;2022-11-15T06:12:08;9.27;;;5.40;;
30247;SDS011;17063;50.892;4.702;2022-11-15T06:14:54;11.27;;;5.40;;
30247;SDS011;17063;50.892;4.702;2022-11-15T06:17:41;10.93;;;6.10;;
30247;SDS011;17063;50.892;4.702;2022-11-15T06:20:30;8.53;;;5.20;;
30247;SDS011;17063;50.892;4.702;2022-11-15T06:23:16;9.90;;;5.13;;
30247;SDS011;17063;50.892;4.702;2022-11-15T06:26:04;11.73;;;5.63;;
30247;SDS011;17063;50.892;4.702;2022-11-15T06:29:01;8.67;;;5.37;;
30247;SDS011;17063;50.892;4.702;2022-11-15T06:31:49;9.33;;;5.23;;
30247;SDS011;17063;50.892;4.702;2022-11-15T06:34:36;11.93;;;5.80;;
30247;SDS011;17063;50.892;4.702;2022-11-15T06:37:24;9.33;;;5.17;;
30247;SDS011;17063;50.892;4.702;2022-11-15T06:40:13;8.43;;;5.23;;
30247;SDS011;17063;50.892;4.702;2022-11-15T06:43:01;11.93;;;5.70;;
30247;SDS011;17063;50.892;4.702;2022-11-15T06:46:05;10.27;;;6.10;;
30247;SDS011;17063;50.892;4.702;2022-11-15T06:48:57;13.23;;;6.00;;
30247;SDS011;17063;50.892;4.702;2022-11-15T06:51:43;10.03;;;5.53;;
30247;SDS011;17063;50.892;4.702;2022-11-15T06:54:53;10.07;;;5.70;;
30247;SDS011;17063;50.892;4.702;2022-11-15T06:57:51;12.27;;;5.60;;
30247;SDS011;17063;50.892;4.702;2022-11-15T07:01:25;9.80;;;5.37;;
30247;SDS011;17063;50.892;4.702;2022-11-15T07:05:04;15.07;;;5.53;;
30247;SDS011;17063;50.892;4.702;2022-11-15T07:10:56;12.63;;;5.27;;
30247;SDS011;17063;50.892;4.702;2022-11-15T07:13:43;13.40;;;5.13;;
30247;SDS011;17063;50.892;4.702;2022-11-15T07:16:30;9.07;;;5.30;;
30247;SDS011;17063;50.892;4.702;2022-11-15T07:22:32;8.37;;;4.87;;
30247;SDS011;17063;50.892;4.702;2022-11-15T07:25:21;10.07;;;4.43;;
30247;SDS011;17063;50.892;4.702;2022-11-15T07:28:10;9.10;;;4.50;;
30247;SDS011;17063;50.892;4.702;2022-11-15T07:31:01;11.07;;;5.03;;
30247;SDS011;17063;50.892;4.702;2022-11-15T07:33:48;9.70;;;4.60;;
30247;SDS011;17063;50.892;4.702;2022-11-15T07:36:38;8.70;;;4.17;;
30247;SDS011;17063;50.892;4.702;2022-11-15T07:39:24;5.07;;;3.33;;
30247;SDS011;17063;50.892;4.702;2022-11-15T07:42:25;12.03;;;3.93;;
30247;SDS011;17063;50.892;4.702;2022-11-15T07:45:31;12.07;;;4.10;;
30247;SDS011;17063;50.892;4.702;2022-11-15T07:48:26;10.10;;;3.23;;
30247;SDS011;17063;50.892;4.702;2022-11-15T07:51:28;7.57;;;3.20;;
30247;SDS011;17063;50.892;4.702;2022-11-15T07:54:13;7.50;;;3.83;;
30247;SDS011;17063;50.892;4.702;2022-11-15T07:56:59;8.80;;;2.97;;
30247;SDS011;17063;50.892;4.702;2022-11-15T07:59:51;6.30;;;3.20;;
30247;SDS011;17063;50.892;4.702;2022-11-15T08:02:37;12.27;;;3.97;;
30247;SDS011;17063;50.892;4.702;2022-11-15T08:05:22;7.03;;;3.07;;
30247;SDS011;17063;50.892;4.702;2022-11-15T08:08:09;7.13;;;3.00;;
30247;SDS011;17063;50.892;4.702;2022-11-15T08:10:57;5.20;;;2.77;;
30247;SDS011;17063;50.892;4.702;2022-11-15T08:13:43;5.40;;;3.00;;
30247;SDS011;17063;50.892;4.702;2022-11-15T08:16:29;8.00;;;3.07;;
30247;SDS011;17063;50.892;4.702;2022-11-15T08:19:15;8.17;;;3.00;;
30247;SDS011;17063;50.892;4.702;2022-11-15T08:22:00;5.80;;;2.30;;
30247;SDS011;17063;50.892;4.702;2022-11-15T08:24:46;3.40;;;1.93;;
30247;SDS011;17063;50.892;4.702;2022-11-15T08:27:32;5.10;;;1.87;;
30247;SDS011;17063;50.892;4.702;2022-11-15T08:30:18;4.30;;;1.77;;
30247;SDS011;17063;50.892;4.702;2022-11-15T08:33:04;3.63;;;1.73;;
30247;SDS011;17063;50.892;4.702;2022-11-15T08:35:49;5.30;;;1.70;;
30247;SDS011;17063;50.892;4.702;2022-11-15T08:38:35;4.67;;;1.60;;
30247;SDS011;17063;50.892;4.702;2022-11-15T08:44:20;2.00;;;1.20;;
30247;SDS011;17063;50.892;4.702;2022-11-15T08:47:06;4.63;;;1.73;;
30247;SDS011;17063;50.892;4.702;2022-11-15T08:49:52;5.73;;;1.40;;
30247;SDS011;17063;50.892;4.702;2022-11-15T08:52:38;4.03;;;1.40;;
30247;SDS011;17063;50.892;4.702;2022-11-15T08:55:23;4.03;;;1.20;;
30247;SDS011;17063;50.892;4.702;2022-11-15T08:58:09;5.57;;;1.30;;
30247;SDS011;17063;50.892;4.702;2022-11-15T09:00:54;3.17;;;0.97;;
30247;SDS011;17063;50.892;4.702;2022-11-15T09:03:40;9.30;;;2.60;;
30247;SDS011;17063;50.892;4.702;2022-11-15T09:06:25;8.27;;;1.67;;
30247;SDS011;17063;50.892;4.702;2022-11-15T09:09:11;3.77;;;1.20;;
30247;SDS011;17063;50.892;4.702;2022-11-15T09:11:57;4.60;;;1.50;;
30247;SDS011;17063;50.892;4.702;2022-11-15T09:17:51;5.70;;;1.53;;
30247;SDS011;17063;50.892;4.702;2022-11-15T09:20:36;11.00;;;1.47;;
30247;SDS011;17063;50.892;4.702;2022-11-15T09:23:22;4.17;;;1.23;;
30247;SDS011;17063;50.892;4.702;2022-11-15T09:26:08;6.77;;;1.20;;
30247;SDS011;17063;50.892;4.702;2022-11-15T09:28:54;6.10;;;1.70;;
30247;SDS011;17063;50.892;4.702;2022-11-15T09:31:39;5.20;;;1.10;;
30247;SDS011;17063;50.892;4.702;2022-11-15T09:34:25;3.97;;;1.40;;
30247;SDS011;17063;50.892;4.702;2022-11-15T09:37:11;1.77;;;1.03;;
30247;SDS011;17063;50.892;4.702;2022-11-15T09:39:57;6.47;;;1.40;;
30247;SDS011;17063;50.892;4.702;2022-11-15T09:49:13;6.60;;;1.73;;
30247;SDS011;17063;50.892;4.702;2022-11-15T09:51:59;5.43;;;1.10;;
30247;SDS011;17063;50.892;4.702;2022-11-15T09:57:15;6.57;;;1.20;;
30247;SDS011;17063;50.892;4.702;2022-11-15T09:59:48;4.43;;;1.17;;
30247;SDS011;17063;50.892;4.702;2022-11-15T10:05:47;4.03;;;1.07;;
30247;SDS011;17063;50.892;4.702;2022-11-15T10:08:35;3.20;;;1.17;;
30247;SDS011;17063;50.892;4.702;2022-11-15T10:11:20;2.87;;;1.20;;
30247;SDS011;17063;50.892;4.702;2022-11-15T10:14:10;2.63;;;0.90;;
30247;SDS011;17063;50.892;4.702;2022-11-15T10:19:23;10.27;;;1.10;;
30247;SDS011;17063;50.892;4.702;2022-11-15T10:24:42;7.47;;;1.53;;
30247;SDS011;17063;50.892;4.702;2022-11-15T10:27:11;3.13;;;1.03;;
30247;SDS011;17063;50.892;4.702;2022-11-15T10:29:50;6.90;;;1.77;;
30247;SDS011;17063;50.892;4.702;2022-11-15T10:32:18;4.40;;;1.23;;
30247;SDS011;17063;50.892;4.702;2022-11-15T10:34:46;6.27;;;1.00;;
30247;SDS011;17063;50.892;4.702;2022-11-15T10:37:13;5.90;;;1.20;;
30247;SDS011;17063;50.892;4.702;2022-11-15T10:39:41;2.00;;;1.10;;
30247;SDS011;17063;50.892;4.702;2022-11-15T10:42:29;2.67;;;0.93;;
30247;SDS011;17063;50.892;4.702;2022-11-15T10:44:55;2.57;;;0.93;;
30247;SDS011;17063;50.892;4.702;2022-11-15T10:49:53;5.57;;;1.30;;
30247;SDS011;17063;50.892;4.702;2022-11-15T10:52:21;7.50;;;1.43;;
30247;SDS011;17063;50.892;4.702;2022-11-15T10:54:55;6.93;;;1.10;;
30247;SDS011;17063;50.892;4.702;2022-11-15T10:57:26;4.87;;;0.90;;
30247;SDS011;17063;50.892;4.702;2022-11-15T10:59:56;5.10;;;1.37;;
30247;SDS011;17063;50.892;4.702;2022-11-15T11:04:57;3.90;;;1.07;;
30247;SDS011;17063;50.892;4.702;2022-11-15T11:07:26;4.80;;;1.10;;
30247;SDS011;17063;50.892;4.702;2022-11-15T11:10:19;7.53;;;1.73;;
30247;SDS011;17063;50.892;4.702;2022-11-15T11:13:41;4.93;;;1.20;;
30247;SDS011;17063;50.892;4.702;2022-11-15T11:18:48;5.53;;;1.43;;
30247;SDS011;17063;50.892;4.702;2022-11-15T11:21:22;8.03;;;1.50;;
30247;SDS011;17063;50.892;4.702;2022-11-15T11:24:18;4.33;;;1.60;;
30247;SDS011;17063;50.892;4.702;2022-11-15T11:26:48;1.97;;;1.47;;
30247;SDS011;17063;50.892;4.702;2022-11-15T11:35:29;5.80;;;1.57;;
30247;SDS011;17063;50.892;4.702;2022-11-15T11:46:34;5.80;;;1.30;;
30247;SDS011;17063;50.892;4.702;2022-11-15T11:50:27;6.13;;;1.00;;
30247;SDS011;17063;50.892;4.702;2022-11-15T11:52:40;2.40;;;1.00;;
30247;SDS011;17063;50.892;4.702;2022-11-15T11:55:43;3.30;;;1.27;;
30247;SDS011;17063;50.892;4.702;2022-11-15T11:58:19;1.70;;;0.87;;
30247;SDS011;17063;50.892;4.702;2022-11-15T12:00:52;4.63;;;1.27;;
30247;SDS011;17063;50.892;4.702;2022-11-15T12:03:32;1.63;;;0.80;;
30247;SDS011;17063;50.892;4.702;2022-11-15T12:06:50;6.77;;;1.73;;
30247;SDS011;17063;50.892;4.702;2022-11-15T12:12:09;1.93;;;0.90;;
30247;SDS011;17063;50.892;4.702;2022-11-15T12:14:50;4.63;;;1.30;;
30247;SDS011;17063;50.892;4.702;2022-11-15T12:17:21;5.93;;;1.90;;
30247;SDS011;17063;50.892;4.702;2022-11-15T12:19:51;3.83;;;1.10;;
30247;SDS011;17063;50.892;4.702;2022-11-15T12:22:20;7.30;;;1.30;;
30247;SDS011;17063;50.892;4.702;2022-11-15T12:30:11;3.87;;;1.10;;
30247;SDS011;17063;50.892;4.702;2022-11-15T12:32:47;4.10;;;1.80;;
30247;SDS011;17063;50.892;4.702;2022-11-15T12:35:21;3.53;;;1.50;;
30247;SDS011;17063;50.892;4.702;2022-11-15T12:37:52;7.93;;;1.83;;
30247;SDS011;17063;50.892;4.702;2022-11-15T12:45:38;6.33;;;1.57;;
30247;SDS011;17063;50.892;4.702;2022-11-15T13:06:52;6.93;;;1.40;;
30247;SDS011;17063;50.892;4.702;2022-11-15T13:14:57;7.53;;;1.13;;
30247;SDS011;17063;50.892;4.702;2022-11-15T13:17:50;3.93;;;1.10;;
30247;SDS011;17063;50.892;4.702;2022-11-15T13:20:44;7.97;;;1.43;;
30247;SDS011;17063;50.892;4.702;2022-11-15T13:23:36;8.47;;;1.17;;
30247;SDS011;17063;50.892;4.702;2022-11-15T13:35:23;4.77;;;1.30;;
30247;SDS011;17063;50.892;4.702;2022-11-15T13:38:57;3.93;;;1.20;;
30247;SDS011;17063;50.892;4.702;2022-11-15T13:41:26;3.50;;;1.10;;
30247;SDS011;17063;50.892;4.702;2022-11-15T13:43:55;2.07;;;1.27;;
30247;SDS011;17063;50.892;4.702;2022-11-15T13:49:02;2.73;;;1.30;;
30247;SDS011;17063;50.892;4.702;2022-11-15T13:56:55;3.53;;;1.57;;
30247;SDS011;17063;50.892;4.702;2022-11-15T13:59:31;3.97;;;1.87;;
30247;SDS011;17063;50.892;4.702;2022-11-15T14:02:12;3.30;;;1.17;;
30247;SDS011;17063;50.892;4.702;2022-11-15T14:04:51;2.83;;;1.20;;
30247;SDS011;17063;50.892;4.702;2022-11-15T14:07:27;2.40;;;1.80;;
30247;SDS011;17063;50.892;4.702;2022-11-15T14:09:57;5.80;;;1.10;;
30247;SDS011;17063;50.892;4.702;2022-11-15T14:12:27;1.77;;;1.07;;
30247;SDS011;17063;50.892;4.702;2022-11-15T14:14:54;1.60;;;0.80;;
30247;SDS011;17063;50.892;4.702;2022-11-15T14:17:32;1.63;;;1.20;;
30247;SDS011;17063;50.892;4.702;2022-11-15T14:20:01;4.50;;;1.20;;
30247;SDS011;17063;50.892;4.702;2022-11-15T14:22:32;2.83;;;1.50;;
30247;SDS011;17063;50.892;4.702;2022-11-15T14:27:44;3.37;;;1.60;;
30247;SDS011;17063;50.892;4.702;2022-11-15T14:30:49;3.77;;;1.70;;
30247;SDS011;17063;50.892;4.702;2022-11-15T14:36:05;5.73;;;1.30;;
30247;SDS011;17063;50.892;4.702;2022-11-15T14:38:40;1.43;;;1.13;;
30247;SDS011;17063;50.892;4.702;2022-11-15T14:41:27;3.47;;;1.53;;
30247;SDS011;17063;50.892;4.702;2022-11-15T14:43:58;10.00;;;1.63;;
30247;SDS011;17063;50.892;4.702;2022-11-15T14:46:25;1.83;;;1.20;;
30247;SDS011;17063;50.892;4.702;2022-11-15T14:48:52;1.80;;;1.07;;
30247;SDS011;17063;50.892;4.702;2022-11-15T14:51:21;1.43;;;1.30;;
30247;SDS011;17063;50.892;4.702;2022-11-15T14:53:52;1.67;;;1.17;;
30247;SDS011;17063;50.892;4.702;2022-11-15T14:56:21;3.83;;;1.10;;
30247;SDS011;17063;50.892;4.702;2022-11-15T14:58:48;2.47;;;1.10;;
30247;SDS011;17063;50.892;4.702;2022-11-15T15:01:20;1.63;;;1.10;;
30247;SDS011;17063;50.892;4.702;2022-11-15T15:04:03;2.13;;;1.00;;
30247;SDS011;17063;50.892;4.702;2022-11-15T15:06:33;1.63;;;1.20;;
30247;SDS011;17063;50.892;4.702;2022-11-15T15:12:10;1.00;;;1.00;;
30247;SDS011;17063;50.892;4.702;2022-11-15T15:14:48;4.10;;;1.20;;
30247;SDS011;17063;50.892;4.702;2022-11-15T15:17:16;5.07;;;1.43;;
30247;SDS011;17063;50.892;4.702;2022-11-15T15:19:44;3.27;;;1.37;;
30247;SDS011;17063;50.892;4.702;2022-11-15T15:22:13;2.17;;;1.10;;
30247;SDS011;17063;50.892;4.702;2022-11-15T15:24:42;1.30;;;1.10;;
30247;SDS011;17063;50.892;4.702;2022-11-15T15:27:10;3.00;;;1.67;;
30247;SDS011;17063;50.892;4.702;2022-11-15T15:29:38;1.40;;;1.30;;
30247;SDS011;17063;50.892;4.702;2022-11-15T15:32:10;7.83;;;1.70;;
30247;SDS011;17063;50.892;4.702;2022-11-15T15:34:41;3.73;;;1.40;;
30247;SDS011;17063;50.892;4.702;2022-11-15T15:39:53;7.27;;;1.80;;
30247;SDS011;17063;50.892;4.702;2022-11-15T15:42:22;5.53;;;1.70;;
30247;SDS011;17063;50.892;4.702;2022-11-15T15:44:50;3.00;;;1.50;;
30247;SDS011;17063;50.892;4.702;2022-11-15T15:47:21;4.00;;;1.53;;
30247;SDS011;17063;50.892;4.702;2022-11-15T15:49:49;1.70;;;1.43;;
30247;SDS011;17063;50.892;4.702;2022-11-15T15:52:17;2.80;;;1.83;;
30247;SDS011;17063;50.892;4.702;2022-11-15T15:54:44;2.10;;;1.40;;
30247;SDS011;17063;50.892;4.702;2022-11-15T15:57:14;3.40;;;1.33;;
30247;SDS011;17063;50.892;4.702;2022-11-15T15:59:41;3.30;;;1.67;;
30247;SDS011;17063;50.892;4.702;2022-11-15T16:02:09;4.67;;;1.80;;
30247;SDS011;17063;50.892;4.702;2022-11-15T16:04:42;6.47;;;1.87;;
30247;SDS011;17063;50.892;4.702;2022-11-15T16:07:15;2.03;;;1.40;;
30247;SDS011;17063;50.892;4.702;2022-11-15T16:09:44;2.37;;;1.43;;
30247;SDS011;17063;50.892;4.702;2022-11-15T16:12:32;4.33;;;1.67;;
30247;SDS011;17063;50.892;4.702;2022-11-15T16:15:01;2.73;;;1.70;;
30247;SDS011;17063;50.892;4.702;2022-11-15T16:17:33;5.33;;;1.77;;
30247;SDS011;17063;50.892;4.702;2022-11-15T16:20:02;2.23;;;1.80;;
30247;SDS011;17063;50.892;4.702;2022-11-15T16:22:29;2.10;;;1.50;;
30247;SDS011;17063;50.892;4.702;2022-11-15T16:24:58;2.27;;;1.57;;
30247;SDS011;17063;50.892;4.702;2022-11-15T16:27:25;1.93;;;1.83;;
30247;SDS011;17063;50.892;4.702;2022-11-15T16:29:53;3.77;;;1.50;;
30247;SDS011;17063;50.892;4.702;2022-11-15T16:32:19;2.40;;;1.60;;
30247;SDS011;17063;50.892;4.702;2022-11-15T16:34:46;1.90;;;1.70;;
30247;SDS011;17063;50.892;4.702;2022-11-15T16:37:22;3.40;;;1.50;;
30247;SDS011;17063;50.892;4.702;2022-11-15T16:39:50;4.00;;;1.60;;
30247;SDS011;17063;50.892;4.702;2022-11-15T16:42:18;3.37;;;1.90;;
30247;SDS011;17063;50.892;4.702;2022-11-15T16:44:45;3.73;;;1.60;;
30247;SDS011;17063;50.892;4.702;2022-11-15T16:47:19;4.47;;;2.27;;
30247;SDS011;17063;50.892;4.702;2022-11-15T16:49:46;4.10;;;1.90;;
30247;SDS011;17063;50.892;4.702;2022-11-15T16:52:14;4.90;;;2.07;;
30247;SDS011;17063;50.892;4.702;2022-11-15T16:54:47;4.13;;;2.10;;
30247;SDS011;17063;50.892;4.702;2022-11-15T16:57:20;3.93;;;2.00;;
30247;SDS011;17063;50.892;4.702;2022-11-15T16:59:55;2.50;;;1.80;;
30247;SDS011;17063;50.892;4.702;2022-11-15T17:02:44;3.53;;;2.23;;
30247;SDS011;17063;50.892;4.702;2022-11-15T17:08:24;2.70;;;1.97;;
30247;SDS011;17063;50.892;4.702;2022-11-15T17:10:51;5.17;;;1.93;;
30247;SDS011;17063;50.892;4.702;2022-11-15T17:13:18;2.27;;;2.00;;
30247;SDS011;17063;50.892;4.702;2022-11-15T17:15:45;2.40;;;1.87;;
30247;SDS011;17063;50.892;4.702;2022-11-15T17:18:14;3.50;;;2.43;;
30247;SDS011;17063;50.892;4.702;2022-11-15T17:20:45;2.77;;;2.13;;
30247;SDS011;17063;50.892;4.702;2022-11-15T17:23:13;3.00;;;2.47;;
30247;SDS011;17063;50.892;4.702;2022-11-15T17:25:40;2.07;;;1.87;;
30247;SDS011;17063;50.892;4.702;2022-11-15T17:28:11;2.13;;;1.83;;
30247;SDS011;17063;50.892;4.702;2022-11-15T17:30:41;2.57;;;2.03;;
30247;SDS011;17063;50.892;4.702;2022-11-15T17:33:09;5.43;;;2.27;;
30247;SDS011;17063;50.892;4.702;2022-11-15T17:35:35;2.27;;;1.90;;
30247;SDS011;17063;50.892;4.702;2022-11-15T17:38:03;2.20;;;1.73;;
30247;SDS011;17063;50.892;4.702;2022-11-15T17:40:32;3.30;;;1.73;;
30247;SDS011;17063;50.892;4.702;2022-11-15T17:43:03;2.33;;;2.00;;
30247;SDS011;17063;50.892;4.702;2022-11-15T17:45:31;2.73;;;2.30;;
30247;SDS011;17063;50.892;4.702;2022-11-15T17:47:58;4.30;;;2.10;;
30247;SDS011;17063;50.892;4.702;2022-11-15T17:50:25;2.03;;;1.70;;
30247;SDS011;17063;50.892;4.702;2022-11-15T17:52:52;2.60;;;2.03;;
30247;SDS011;17063;50.892;4.702;2022-11-15T17:55:19;2.87;;;2.10;;
30247;SDS011;17063;50.892;4.702;2022-11-15T17:57:45;2.60;;;1.63;;
30247;SDS011;17063;50.892;4.702;2022-11-15T18:00:12;5.83;;;3.10;;
30247;SDS011;17063;50.892;4.702;2022-11-15T18:02:43;3.43;;;2.60;;
30247;SDS011;17063;50.892;4.702;2022-11-15T18:05:10;4.90;;;2.70;;
30247;SDS011;17063;50.892;4.702;2022-11-15T18:07:37;5.57;;;3.13;;
30247;SDS011;17063;50.892;4.702;2022-11-15T18:10:04;5.40;;;2.63;;
30247;SDS011;17063;50.892;4.702;2022-11-15T18:12:31;5.63;;;3.10;;
30247;SDS011;17063;50.892;4.702;2022-11-15T18:14:58;5.17;;;3.10;;
30247;SDS011;17063;50.892;4.702;2022-11-15T18:17:25;5.77;;;3.40;;
30247;SDS011;17063;50.892;4.702;2022-11-15T18:19:52;5.07;;;3.00;;
30247;SDS011;17063;50.892;4.702;2022-11-15T18:22:19;6.37;;;3.27;;
30247;SDS011;17063;50.892;4.702;2022-11-15T18:24:47;10.10;;;4.17;;
30247;SDS011;17063;50.892;4.702;2022-11-15T18:27:15;7.50;;;3.90;;